sensor_id;sensor_type;location;lat;lon;timestamp;pressure;altitude;pressure_sealevel;temperature;humidity
37776;BME280;23614;33.774;130.514;2023-04-09T00:02:21;101565.44;;;14.98;30.10
37776;BME280;23614;33.774;130.514;2023-04-09T00:04:47;101563.55;;;15.10;29.70
37776;BME280;23614;33.774;130.514;2023-04-09T00:07:13;101560.45;;;15.31;29.43
37776;BME280;23614;33.774;130.514;2023-04-09T00:09:39;101564.84;;;14.98;29.57
37776;BME280;23614;33.774;130.514;2023-04-09T00:12:05;101558.38;;;14.68;29.19
37776;BME280;23614;33.774;130.514;2023-04-09T00:14:31;101554.41;;;15.06;29.20
37776;BME280;23614;33.774;130.514;2023-04-09T00:16:57;101550.65;;;15.29;29.22
37776;BME280;23614;33.774;130.514;2023-04-09T00:19:23;101559.32;;;15.29;28.46
37776;BME280;23614;33.774;130.514;2023-04-09T00:21:49;101543.53;;;15.59;28.09
37776;BME280;23614;33.774;130.514;2023-04-09T00:24:15;101549.43;;;15.27;28.50
37776;BME280;23614;33.774;130.514;2023-04-09T00:26:41;101541.80;;;15.46;28.34
37776;BME280;23614;33.774;130.514;2023-04-09T00:29:07;101554.92;;;14.29;28.87
37776;BME280;23614;33.774;130.514;2023-04-09T00:31:33;101538.12;;;15.25;28.22
37776;BME280;23614;33.774;130.514;2023-04-09T00:33:59;101543.06;;;15.71;27.53
37776;BME280;23614;33.774;130.514;2023-04-09T00:36:25;101543.01;;;15.56;27.52
37776;BME280;23614;33.774;130.514;2023-04-09T00:38:51;101536.09;;;16.28;27.14
37776;BME280;23614;33.774;130.514;2023-04-09T00:41:18;101549.60;;;15.77;27.10
37776;BME280;23614;33.774;130.514;2023-04-09T00:43:43;101551.95;;;14.53;28.05
37776;BME280;23614;33.774;130.514;2023-04-09T00:46:09;101551.87;;;14.81;27.60
37776;BME280;23614;33.774;130.514;2023-04-09T00:48:35;101553.33;;;15.42;27.62
37776;BME280;23614;33.774;130.514;2023-04-09T00:51:01;101541.31;;;16.49;27.07
37776;BME280;23614;33.774;130.514;2023-04-09T00:53:27;101540.36;;;16.06;27.09
37776;BME280;23614;33.774;130.514;2023-04-09T00:55:53;101537.93;;;16.25;26.36
37776;BME280;23614;33.774;130.514;2023-04-09T00:58:20;101536.02;;;15.80;26.96
37776;BME280;23614;33.774;130.514;2023-04-09T01:00:45;101538.38;;;15.65;27.04
37776;BME280;23614;33.774;130.514;2023-04-09T01:03:11;101532.86;;;15.88;27.16
37776;BME280;23614;33.774;130.514;2023-04-09T01:05:43;101538.17;;;15.61;26.93
37776;BME280;23614;33.774;130.514;2023-04-09T01:08:11;101535.35;;;15.68;26.66
37776;BME280;23614;33.774;130.514;2023-04-09T01:10:37;101534.01;;;16.08;26.27
37776;BME280;23614;33.774;130.514;2023-04-09T01:13:02;101531.06;;;16.04;26.62
37776;BME280;23614;33.774;130.514;2023-04-09T01:15:24;101527.93;;;16.71;26.65
37776;BME280;23614;33.774;130.514;2023-04-09T01:17:51;101531.77;;;15.11;27.69
37776;BME280;23614;33.774;130.514;2023-04-09T01:20:16;101533.70;;;15.60;27.00
37776;BME280;23614;33.774;130.514;2023-04-09T01:22:56;101535.20;;;15.69;27.01
37776;BME280;23614;33.774;130.514;2023-04-09T01:25:11;101541.62;;;16.34;26.68
37776;BME280;23614;33.774;130.514;2023-04-09T01:27:38;101538.00;;;15.76;26.50
37776;BME280;23614;33.774;130.514;2023-04-09T01:29:57;101538.27;;;16.17;26.47
37776;BME280;23614;33.774;130.514;2023-04-09T01:32:23;101542.33;;;16.32;25.91
37776;BME280;23614;33.774;130.514;2023-04-09T01:34:49;101542.73;;;16.37;25.52
37776;BME280;23614;33.774;130.514;2023-04-09T01:37:15;101536.25;;;16.49;25.92
37776;BME280;23614;33.774;130.514;2023-04-09T01:39:41;101532.04;;;16.04;26.35
37776;BME280;23614;33.774;130.514;2023-04-09T01:42:07;101535.80;;;16.60;25.87
37776;BME280;23614;33.774;130.514;2023-04-09T01:44:33;101533.95;;;16.63;25.10
37776;BME280;23614;33.774;130.514;2023-04-09T01:46:59;101537.53;;;17.06;25.65
37776;BME280;23614;33.774;130.514;2023-04-09T01:49:25;101541.38;;;16.00;25.96
37776;BME280;23614;33.774;130.514;2023-04-09T01:51:51;101534.82;;;16.55;25.22
37776;BME280;23614;33.774;130.514;2023-04-09T01:54:17;101538.85;;;16.60;25.08
37776;BME280;23614;33.774;130.514;2023-04-09T01:56:44;101532.84;;;16.56;25.13
37776;BME280;23614;33.774;130.514;2023-04-09T01:59:09;101533.37;;;16.18;26.35
37776;BME280;23614;33.774;130.514;2023-04-09T02:01:40;101530.44;;;16.50;26.62
37776;BME280;23614;33.774;130.514;2023-04-09T02:04:04;101537.03;;;15.06;28.64
37776;BME280;23614;33.774;130.514;2023-04-09T02:06:33;101523.47;;;17.32;27.11
37776;BME280;23614;33.774;130.514;2023-04-09T02:08:53;101525.53;;;16.51;27.88
37776;BME280;23614;33.774;130.514;2023-04-09T02:11:21;101525.71;;;16.34;27.78
37776;BME280;23614;33.774;130.514;2023-04-09T02:13:46;101529.75;;;15.27;28.99
37776;BME280;23614;33.774;130.514;2023-04-09T02:16:14;101523.16;;;15.72;29.26
37776;BME280;23614;33.774;130.514;2023-04-09T02:18:37;101525.27;;;15.94;28.40
37776;BME280;23614;33.774;130.514;2023-04-09T02:21:03;101528.30;;;16.14;28.82
37776;BME280;23614;33.774;130.514;2023-04-09T02:23:29;101527.61;;;15.76;29.55
37776;BME280;23614;33.774;130.514;2023-04-09T02:25:55;101519.96;;;16.55;28.14
37776;BME280;23614;33.774;130.514;2023-04-09T02:28:21;101522.57;;;16.13;29.40
37776;BME280;23614;33.774;130.514;2023-04-09T02:30:47;101528.02;;;16.69;28.36
37776;BME280;23614;33.774;130.514;2023-04-09T02:33:13;101534.10;;;15.85;29.15
37776;BME280;23614;33.774;130.514;2023-04-09T02:35:39;101532.50;;;15.69;29.68
37776;BME280;23614;33.774;130.514;2023-04-09T02:38:05;101521.10;;;16.28;29.26
37776;BME280;23614;33.774;130.514;2023-04-09T02:40:31;101525.71;;;16.48;28.54
37776;BME280;23614;33.774;130.514;2023-04-09T02:42:57;101522.52;;;15.85;29.03
37776;BME280;23614;33.774;130.514;2023-04-09T02:45:23;101533.52;;;14.72;30.39
37776;BME280;23614;33.774;130.514;2023-04-09T02:47:49;101509.85;;;16.20;29.30
37776;BME280;23614;33.774;130.514;2023-04-09T02:50:15;101507.81;;;16.06;29.07
37776;BME280;23614;33.774;130.514;2023-04-09T02:52:41;101501.25;;;15.99;28.68
37776;BME280;23614;33.774;130.514;2023-04-09T02:55:07;101492.13;;;16.56;28.54
37776;BME280;23614;33.774;130.514;2023-04-09T02:57:33;101489.45;;;15.89;29.42
37776;BME280;23614;33.774;130.514;2023-04-09T02:59:59;101491.47;;;15.43;30.17
37776;BME280;23614;33.774;130.514;2023-04-09T03:02:26;101473.22;;;16.69;28.32
37776;BME280;23614;33.774;130.514;2023-04-09T03:04:51;101476.92;;;16.03;28.76
37776;BME280;23614;33.774;130.514;2023-04-09T03:07:17;101474.54;;;16.17;28.82
37776;BME280;23614;33.774;130.514;2023-04-09T03:09:43;101476.83;;;16.99;26.96
37776;BME280;23614;33.774;130.514;2023-04-09T03:12:09;101469.95;;;16.42;27.20
37776;BME280;23614;33.774;130.514;2023-04-09T03:14:35;101460.97;;;17.07;26.50
37776;BME280;23614;33.774;130.514;2023-04-09T03:17:01;101468.11;;;17.02;25.88
37776;BME280;23614;33.774;130.514;2023-04-09T03:19:27;101461.90;;;16.97;25.77
37776;BME280;23614;33.774;130.514;2023-04-09T03:21:53;101460.86;;;16.52;25.81
37776;BME280;23614;33.774;130.514;2023-04-09T03:24:19;101465.69;;;17.13;24.98
37776;BME280;23614;33.774;130.514;2023-04-09T03:26:45;101463.93;;;16.72;26.04
37776;BME280;23614;33.774;130.514;2023-04-09T03:29:11;101450.37;;;16.31;27.56
37776;BME280;23614;33.774;130.514;2023-04-09T03:31:37;101444.81;;;17.42;26.58
37776;BME280;23614;33.774;130.514;2023-04-09T03:34:03;101451.93;;;16.41;25.89
37776;BME280;23614;33.774;130.514;2023-04-09T03:36:29;101438.65;;;16.90;25.43
37776;BME280;23614;33.774;130.514;2023-04-09T03:38:55;101434.74;;;17.29;24.14
37776;BME280;23614;33.774;130.514;2023-04-09T03:41:21;101428.68;;;17.14;23.82
37776;BME280;23614;33.774;130.514;2023-04-09T03:43:47;101427.44;;;16.99;25.48
37776;BME280;23614;33.774;130.514;2023-04-09T03:46:13;101423.17;;;17.72;25.96
37776;BME280;23614;33.774;130.514;2023-04-09T03:48:39;101419.94;;;17.39;26.38
37776;BME280;23614;33.774;130.514;2023-04-09T03:51:05;101423.66;;;17.47;26.46
37776;BME280;23614;33.774;130.514;2023-04-09T03:53:31;101429.58;;;16.81;25.58
37776;BME280;23614;33.774;130.514;2023-04-09T03:55:57;101427.03;;;16.74;27.39
37776;BME280;23614;33.774;130.514;2023-04-09T03:58:23;101426.63;;;17.76;26.71
37776;BME280;23614;33.774;130.514;2023-04-09T04:00:49;101428.84;;;17.36;25.71
37776;BME280;23614;33.774;130.514;2023-04-09T04:03:16;101430.94;;;17.54;26.88
37776;BME280;23614;33.774;130.514;2023-04-09T04:05:41;101428.87;;;16.78;25.46
37776;BME280;23614;33.774;130.514;2023-04-09T04:08:07;101430.20;;;17.61;25.54
37776;BME280;23614;33.774;130.514;2023-04-09T04:10:35;101424.44;;;16.88;26.45
37776;BME280;23614;33.774;130.514;2023-04-09T04:12:59;101418.80;;;17.08;27.34
37776;BME280;23614;33.774;130.514;2023-04-09T04:15:25;101422.89;;;16.62;26.95
37776;BME280;23614;33.774;130.514;2023-04-09T04:17:51;101416.46;;;17.62;26.73
37776;BME280;23614;33.774;130.514;2023-04-09T04:20:17;101411.65;;;17.46;25.38
37776;BME280;23614;33.774;130.514;2023-04-09T04:22:43;101414.23;;;16.91;24.22
37776;BME280;23614;33.774;130.514;2023-04-09T04:25:10;101421.54;;;17.31;25.45
37776;BME280;23614;33.774;130.514;2023-04-09T04:27:35;101418.82;;;16.83;27.10
37776;BME280;23614;33.774;130.514;2023-04-09T04:30:01;101418.25;;;17.23;28.53
37776;BME280;23614;33.774;130.514;2023-04-09T04:32:27;101423.36;;;16.77;27.78
37776;BME280;23614;33.774;130.514;2023-04-09T04:34:53;101420.44;;;16.68;25.47
37776;BME280;23614;33.774;130.514;2023-04-09T04:37:19;101416.95;;;17.27;28.12
37776;BME280;23614;33.774;130.514;2023-04-09T04:39:45;101420.52;;;17.68;28.08
37776;BME280;23614;33.774;130.514;2023-04-09T04:42:11;101413.60;;;17.47;28.46
37776;BME280;23614;33.774;130.514;2023-04-09T04:44:37;101405.72;;;17.14;27.65
37776;BME280;23614;33.774;130.514;2023-04-09T04:47:03;101401.92;;;18.12;27.84
37776;BME280;23614;33.774;130.514;2023-04-09T04:49:29;101399.05;;;17.92;28.18
37776;BME280;23614;33.774;130.514;2023-04-09T04:51:55;101399.04;;;17.81;27.83
37776;BME280;23614;33.774;130.514;2023-04-09T04:54:21;101397.13;;;17.88;27.65
37776;BME280;23614;33.774;130.514;2023-04-09T04:56:47;101398.22;;;17.76;27.61
37776;BME280;23614;33.774;130.514;2023-04-09T04:59:12;101385.59;;;18.45;27.10
37776;BME280;23614;33.774;130.514;2023-04-09T05:01:38;101382.77;;;18.48;27.12
37776;BME280;23614;33.774;130.514;2023-04-09T05:04:04;101389.65;;;18.20;27.53
37776;BME280;23614;33.774;130.514;2023-04-09T05:06:30;101378.48;;;17.58;28.10
37776;BME280;23614;33.774;130.514;2023-04-09T05:08:56;101376.38;;;17.79;27.94
37776;BME280;23614;33.774;130.514;2023-04-09T05:11:22;101369.33;;;16.70;28.51
37776;BME280;23614;33.774;130.514;2023-04-09T05:13:48;101379.34;;;18.06;27.53
37776;BME280;23614;33.774;130.514;2023-04-09T05:16:17;101374.16;;;17.14;28.35
37776;BME280;23614;33.774;130.514;2023-04-09T05:18:40;101384.24;;;16.42;28.93
37776;BME280;23614;33.774;130.514;2023-04-09T05:21:06;101366.81;;;17.01;28.86
37776;BME280;23614;33.774;130.514;2023-04-09T05:23:32;101358.56;;;17.79;28.32
37776;BME280;23614;33.774;130.514;2023-04-09T05:25:58;101363.45;;;16.93;28.90
37776;BME280;23614;33.774;130.514;2023-04-09T05:28:24;101355.77;;;17.52;28.82
37776;BME280;23614;33.774;130.514;2023-04-09T05:30:50;101355.24;;;17.50;29.20
37776;BME280;23614;33.774;130.514;2023-04-09T05:33:16;101348.00;;;17.69;28.89
37776;BME280;23614;33.774;130.514;2023-04-09T05:35:42;101351.88;;;16.64;30.42
37776;BME280;23614;33.774;130.514;2023-04-09T05:38:08;101354.88;;;17.39;29.50
37776;BME280;23614;33.774;130.514;2023-04-09T05:40:34;101352.17;;;16.83;29.45
37776;BME280;23614;33.774;130.514;2023-04-09T05:43:00;101349.18;;;16.54;29.96
37776;BME280;23614;33.774;130.514;2023-04-09T05:45:26;101359.58;;;16.75;29.99
37776;BME280;23614;33.774;130.514;2023-04-09T05:47:52;101351.56;;;16.96;29.58
37776;BME280;23614;33.774;130.514;2023-04-09T05:50:18;101351.25;;;16.98;29.70
37776;BME280;23614;33.774;130.514;2023-04-09T05:52:44;101352.47;;;17.02;30.51
37776;BME280;23614;33.774;130.514;2023-04-09T05:55:10;101353.37;;;17.48;29.70
37776;BME280;23614;33.774;130.514;2023-04-09T05:57:36;101352.65;;;17.50;29.69
37776;BME280;23614;33.774;130.514;2023-04-09T06:00:02;101349.08;;;17.21;29.78
37776;BME280;23614;33.774;130.514;2023-04-09T06:02:28;101353.41;;;17.29;29.35
37776;BME280;23614;33.774;130.514;2023-04-09T06:04:54;101359.29;;;17.29;29.66
37776;BME280;23614;33.774;130.514;2023-04-09T06:07:20;101353.33;;;17.49;29.37
37776;BME280;23614;33.774;130.514;2023-04-09T06:09:46;101349.36;;;18.16;29.21
37776;BME280;23614;33.774;130.514;2023-04-09T06:12:12;101339.75;;;16.79;30.31
37776;BME280;23614;33.774;130.514;2023-04-09T06:14:38;101356.02;;;17.16;29.86
37776;BME280;23614;33.774;130.514;2023-04-09T06:17:04;101346.14;;;17.42;30.12
37776;BME280;23614;33.774;130.514;2023-04-09T06:19:30;101366.63;;;16.09;31.25
37776;BME280;23614;33.774;130.514;2023-04-09T06:21:56;101355.85;;;15.69;32.03
37776;BME280;23614;33.774;130.514;2023-04-09T06:24:22;101349.52;;;17.09;31.06
37776;BME280;23614;33.774;130.514;2023-04-09T06:26:48;101344.65;;;16.65;30.50
37776;BME280;23614;33.774;130.514;2023-04-09T06:29:14;101328.51;;;16.53;31.40
37776;BME280;23614;33.774;130.514;2023-04-09T06:31:40;101346.00;;;15.63;32.10
37776;BME280;23614;33.774;130.514;2023-04-09T06:34:06;101332.99;;;15.92;31.66
37776;BME280;23614;33.774;130.514;2023-04-09T06:36:32;101336.04;;;16.31;30.85
37776;BME280;23614;33.774;130.514;2023-04-09T06:38:58;101324.05;;;16.32;30.42
37776;BME280;23614;33.774;130.514;2023-04-09T06:41:24;101336.19;;;16.24;30.69
37776;BME280;23614;33.774;130.514;2023-04-09T06:43:50;101323.46;;;16.45;30.70
37776;BME280;23614;33.774;130.514;2023-04-09T06:46:16;101335.88;;;16.07;30.70
37776;BME280;23614;33.774;130.514;2023-04-09T06:48:42;101324.51;;;15.25;31.40
37776;BME280;23614;33.774;130.514;2023-04-09T06:51:08;101319.25;;;15.97;30.76
37776;BME280;23614;33.774;130.514;2023-04-09T06:53:34;101324.86;;;16.37;30.74
37776;BME280;23614;33.774;130.514;2023-04-09T06:56:00;101317.42;;;16.96;29.26
37776;BME280;23614;33.774;130.514;2023-04-09T06:58:26;101309.82;;;16.38;29.76
37776;BME280;23614;33.774;130.514;2023-04-09T07:00:52;101316.59;;;15.94;29.60
37776;BME280;23614;33.774;130.514;2023-04-09T07:03:18;101312.81;;;16.25;29.16
37776;BME280;23614;33.774;130.514;2023-04-09T07:05:44;101310.59;;;15.24;31.26
37776;BME280;23614;33.774;130.514;2023-04-09T07:08:10;101303.74;;;16.02;30.52
37776;BME280;23614;33.774;130.514;2023-04-09T07:10:36;101310.23;;;16.37;29.80
37776;BME280;23614;33.774;130.514;2023-04-09T07:13:02;101308.20;;;16.02;29.82
37776;BME280;23614;33.774;130.514;2023-04-09T07:15:29;101310.04;;;16.94;29.28
37776;BME280;23614;33.774;130.514;2023-04-09T07:17:54;101306.55;;;17.03;28.48
37776;BME280;23614;33.774;130.514;2023-04-09T07:20:20;101318.61;;;16.82;28.93
37776;BME280;23614;33.774;130.514;2023-04-09T07:22:46;101318.78;;;15.32;30.89
37776;BME280;23614;33.774;130.514;2023-04-09T07:25:12;101310.88;;;16.23;30.33
37776;BME280;23614;33.774;130.514;2023-04-09T07:27:38;101314.85;;;16.17;29.94
37776;BME280;23614;33.774;130.514;2023-04-09T07:30:04;101311.48;;;16.38;29.99
37776;BME280;23614;33.774;130.514;2023-04-09T07:32:30;101318.89;;;16.00;30.43
37776;BME280;23614;33.774;130.514;2023-04-09T07:34:56;101314.73;;;16.38;29.92
37776;BME280;23614;33.774;130.514;2023-04-09T07:37:22;101313.22;;;16.63;29.18
37776;BME280;23614;33.774;130.514;2023-04-09T07:39:48;101318.65;;;15.53;30.73
37776;BME280;23614;33.774;130.514;2023-04-09T07:42:14;101323.95;;;16.41;30.02
37776;BME280;23614;33.774;130.514;2023-04-09T07:44:41;101318.87;;;16.18;29.85
37776;BME280;23614;33.774;130.514;2023-04-09T07:47:07;101327.49;;;15.99;30.56
37776;BME280;23614;33.774;130.514;2023-04-09T07:49:32;101320.42;;;15.39;31.01
37776;BME280;23614;33.774;130.514;2023-04-09T07:51:59;101317.10;;;16.29;30.35
37776;BME280;23614;33.774;130.514;2023-04-09T07:54:24;101323.03;;;15.97;30.68
37776;BME280;23614;33.774;130.514;2023-04-09T07:56:50;101314.20;;;16.48;30.13
37776;BME280;23614;33.774;130.514;2023-04-09T07:59:16;101324.61;;;16.65;30.64
37776;BME280;23614;33.774;130.514;2023-04-09T08:01:42;101319.99;;;16.45;31.08
37776;BME280;23614;33.774;130.514;2023-04-09T08:04:08;101323.00;;;16.16;31.17
37776;BME280;23614;33.774;130.514;2023-04-09T08:06:34;101320.28;;;15.97;31.54
37776;BME280;23614;33.774;130.514;2023-04-09T08:09:00;101315.27;;;15.78;32.33
37776;BME280;23614;33.774;130.514;2023-04-09T08:11:26;101314.21;;;16.19;31.85
37776;BME280;23614;33.774;130.514;2023-04-09T08:13:52;101327.73;;;16.87;30.35
37776;BME280;23614;33.774;130.514;2023-04-09T08:16:19;101321.88;;;15.76;32.25
37776;BME280;23614;33.774;130.514;2023-04-09T08:18:44;101314.83;;;16.31;31.98
37776;BME280;23614;33.774;130.514;2023-04-09T08:21:10;101317.59;;;15.44;32.75
37776;BME280;23614;33.774;130.514;2023-04-09T08:23:36;101321.11;;;16.06;31.24
37776;BME280;23614;33.774;130.514;2023-04-09T08:26:02;101330.45;;;15.95;31.47
37776;BME280;23614;33.774;130.514;2023-04-09T08:28:28;101319.30;;;15.87;32.05
37776;BME280;23614;33.774;130.514;2023-04-09T08:30:54;101316.81;;;15.58;32.12
37776;BME280;23614;33.774;130.514;2023-04-09T08:33:20;101324.81;;;15.79;31.80
37776;BME280;23614;33.774;130.514;2023-04-09T08:35:46;101319.84;;;15.85;31.36
37776;BME280;23614;33.774;130.514;2023-04-09T08:38:12;101319.61;;;16.25;31.09
37776;BME280;23614;33.774;130.514;2023-04-09T08:40:38;101313.65;;;16.27;31.35
37776;BME280;23614;33.774;130.514;2023-04-09T08:43:06;101317.64;;;16.57;30.83
37776;BME280;23614;33.774;130.514;2023-04-09T08:45:31;101317.06;;;15.88;31.84
37776;BME280;23614;33.774;130.514;2023-04-09T08:47:56;101314.30;;;16.72;31.11
37776;BME280;23614;33.774;130.514;2023-04-09T08:50:22;101320.00;;;16.85;30.65
37776;BME280;23614;33.774;130.514;2023-04-09T08:52:48;101321.78;;;16.45;31.32
37776;BME280;23614;33.774;130.514;2023-04-09T08:55:14;101321.70;;;17.30;30.75
37776;BME280;23614;33.774;130.514;2023-04-09T08:57:40;101328.43;;;16.50;31.45
37776;BME280;23614;33.774;130.514;2023-04-09T09:00:07;101328.34;;;16.19;31.82
37776;BME280;23614;33.774;130.514;2023-04-09T09:02:32;101328.99;;;16.55;31.38
37776;BME280;23614;33.774;130.514;2023-04-09T09:04:58;101339.68;;;16.47;31.59
37776;BME280;23614;33.774;130.514;2023-04-09T09:07:24;101328.06;;;17.22;30.72
37776;BME280;23614;33.774;130.514;2023-04-09T09:09:54;101328.15;;;17.01;31.11
37776;BME280;23614;33.774;130.514;2023-04-09T09:12:32;101327.69;;;16.06;32.25
37776;BME280;23614;33.774;130.514;2023-04-09T09:14:42;101328.93;;;15.89;32.94
37776;BME280;23614;33.774;130.514;2023-04-09T09:17:08;101326.32;;;16.04;32.83
37776;BME280;23614;33.774;130.514;2023-04-09T09:19:34;101334.37;;;16.25;32.87
37776;BME280;23614;33.774;130.514;2023-04-09T09:22:01;101333.87;;;15.80;33.34
37776;BME280;23614;33.774;130.514;2023-04-09T09:24:26;101333.33;;;16.08;33.04
37776;BME280;23614;33.774;130.514;2023-04-09T09:26:52;101324.08;;;16.32;32.79
37776;BME280;23614;33.774;130.514;2023-04-09T09:29:18;101322.64;;;16.42;33.05
37776;BME280;23614;33.774;130.514;2023-04-09T09:31:48;101326.29;;;15.69;33.36
37776;BME280;23614;33.774;130.514;2023-04-09T09:34:10;101327.29;;;15.95;33.48
37776;BME280;23614;33.774;130.514;2023-04-09T09:36:36;101322.92;;;16.25;33.25
37776;BME280;23614;33.774;130.514;2023-04-09T09:39:02;101326.05;;;16.39;32.94
37776;BME280;23614;33.774;130.514;2023-04-09T09:41:28;101321.13;;;15.98;33.56
37776;BME280;23614;33.774;130.514;2023-04-09T09:43:54;101320.37;;;16.08;32.70
37776;BME280;23614;33.774;130.514;2023-04-09T09:46:21;101322.64;;;16.35;32.68
37776;BME280;23614;33.774;130.514;2023-04-09T09:48:46;101325.62;;;16.33;32.85
37776;BME280;23614;33.774;130.514;2023-04-09T09:51:13;101325.76;;;16.19;33.61
37776;BME280;23614;33.774;130.514;2023-04-09T09:53:40;101328.15;;;16.22;33.80
37776;BME280;23614;33.774;130.514;2023-04-09T09:56:05;101325.62;;;16.24;33.79
37776;BME280;23614;33.774;130.514;2023-04-09T09:58:34;101332.56;;;15.13;35.01
37776;BME280;23614;33.774;130.514;2023-04-09T10:00:56;101328.20;;;15.45;34.84
37776;BME280;23614;33.774;130.514;2023-04-09T10:03:26;101328.52;;;15.88;34.48
37776;BME280;23614;33.774;130.514;2023-04-09T10:05:49;101325.58;;;15.70;34.47
37776;BME280;23614;33.774;130.514;2023-04-09T10:08:14;101329.07;;;14.87;35.80
37776;BME280;23614;33.774;130.514;2023-04-09T10:10:40;101324.86;;;15.54;34.91
37776;BME280;23614;33.774;130.514;2023-04-09T10:13:07;101326.36;;;15.61;34.48
37776;BME280;23614;33.774;130.514;2023-04-09T10:15:32;101329.18;;;15.95;34.10
37776;BME280;23614;33.774;130.514;2023-04-09T10:17:58;101326.42;;;15.77;34.45
37776;BME280;23614;33.774;130.514;2023-04-09T10:20:31;101324.31;;;16.38;33.72
37776;BME280;23614;33.774;130.514;2023-04-09T10:22:50;101329.82;;;16.22;33.74
37776;BME280;23614;33.774;130.514;2023-04-09T10:25:16;101332.43;;;16.11;34.03
37776;BME280;23614;33.774;130.514;2023-04-09T10:27:42;101337.81;;;15.73;33.93
37776;BME280;23614;33.774;130.514;2023-04-09T10:30:08;101339.63;;;15.66;34.54
37776;BME280;23614;33.774;130.514;2023-04-09T10:32:35;101335.06;;;15.89;34.50
37776;BME280;23614;33.774;130.514;2023-04-09T10:35:01;101336.57;;;15.96;34.49
37776;BME280;23614;33.774;130.514;2023-04-09T10:37:27;101335.42;;;15.91;34.83
37776;BME280;23614;33.774;130.514;2023-04-09T10:39:52;101339.86;;;15.87;34.82
37776;BME280;23614;33.774;130.514;2023-04-09T10:42:19;101344.32;;;15.68;35.07
37776;BME280;23614;33.774;130.514;2023-04-09T10:44:44;101347.49;;;15.56;35.24
37776;BME280;23614;33.774;130.514;2023-04-09T10:47:10;101346.21;;;15.62;35.21
37776;BME280;23614;33.774;130.514;2023-04-09T10:49:38;101346.75;;;15.60;35.38
37776;BME280;23614;33.774;130.514;2023-04-09T10:52:03;101351.71;;;15.24;35.50
37776;BME280;23614;33.774;130.514;2023-04-09T10:54:44;101352.93;;;15.58;35.41
37776;BME280;23614;33.774;130.514;2023-04-09T10:57:26;101358.40;;;15.45;35.33
37776;BME280;23614;33.774;130.514;2023-04-09T10:59:20;101355.81;;;15.38;35.71
37776;BME280;23614;33.774;130.514;2023-04-09T11:01:53;101356.32;;;15.49;35.74
37776;BME280;23614;33.774;130.514;2023-04-09T11:04:16;101354.96;;;15.31;36.26
37776;BME280;23614;33.774;130.514;2023-04-09T11:06:40;101356.44;;;15.34;36.20
37776;BME280;23614;33.774;130.514;2023-04-09T11:09:04;101355.64;;;15.33;36.23
37776;BME280;23614;33.774;130.514;2023-04-09T11:11:30;101355.25;;;15.87;35.51
37776;BME280;23614;33.774;130.514;2023-04-09T11:13:59;101362.52;;;15.52;35.78
37776;BME280;23614;33.774;130.514;2023-04-09T11:16:23;101364.87;;;15.72;35.42
37776;BME280;23614;33.774;130.514;2023-04-09T11:18:48;101367.12;;;16.31;34.55
37776;BME280;23614;33.774;130.514;2023-04-09T11:21:16;101370.71;;;15.78;35.28
37776;BME280;23614;33.774;130.514;2023-04-09T11:23:40;101378.69;;;15.90;35.35
37776;BME280;23614;33.774;130.514;2023-04-09T11:26:06;101381.41;;;15.82;35.42
37776;BME280;23614;33.774;130.514;2023-04-09T11:28:33;101386.71;;;15.78;35.75
37776;BME280;23614;33.774;130.514;2023-04-09T11:30:58;101388.68;;;15.99;35.47
37776;BME280;23614;33.774;130.514;2023-04-09T11:33:31;101383.77;;;16.19;35.23
37776;BME280;23614;33.774;130.514;2023-04-09T11:35:51;101382.50;;;16.57;34.44
37776;BME280;23614;33.774;130.514;2023-04-09T11:38:16;101383.86;;;16.30;34.77
37776;BME280;23614;33.774;130.514;2023-04-09T11:40:43;101381.40;;;16.73;34.22
37776;BME280;23614;33.774;130.514;2023-04-09T11:43:08;101381.49;;;16.44;34.42
37776;BME280;23614;33.774;130.514;2023-04-09T11:45:34;101382.67;;;16.32;34.70
37776;BME280;23614;33.774;130.514;2023-04-09T11:48:00;101383.92;;;16.10;35.27
37776;BME280;23614;33.774;130.514;2023-04-09T11:50:26;101382.15;;;15.81;35.78
37776;BME280;23614;33.774;130.514;2023-04-09T11:52:52;101381.45;;;15.88;35.84
37776;BME280;23614;33.774;130.514;2023-04-09T11:55:27;101382.79;;;15.71;36.21
37776;BME280;23614;33.774;130.514;2023-04-09T11:57:45;101385.19;;;15.84;35.89
37776;BME280;23614;33.774;130.514;2023-04-09T12:00:12;101388.65;;;15.61;36.34
37776;BME280;23614;33.774;130.514;2023-04-09T12:02:39;101385.66;;;15.61;36.25
37776;BME280;23614;33.774;130.514;2023-04-09T12:05:04;101385.17;;;15.90;36.10
37776;BME280;23614;33.774;130.514;2023-04-09T12:07:32;101385.13;;;15.90;35.96
37776;BME280;23614;33.774;130.514;2023-04-09T12:09:54;101389.18;;;15.73;36.00
37776;BME280;23614;33.774;130.514;2023-04-09T12:12:22;101390.84;;;15.51;36.39
37776;BME280;23614;33.774;130.514;2023-04-09T12:14:46;101393.03;;;15.85;35.97
37776;BME280;23614;33.774;130.514;2023-04-09T12:17:12;101391.30;;;15.98;35.50
37776;BME280;23614;33.774;130.514;2023-04-09T12:19:38;101390.13;;;15.90;35.49
37776;BME280;23614;33.774;130.514;2023-04-09T12:22:04;101386.42;;;15.24;36.66
37776;BME280;23614;33.774;130.514;2023-04-09T12:24:30;101391.15;;;15.05;37.17